Terminal Aerodrome Forecast
Issued by NWS Wakefield, VA

Home | Current Version | Previous Version | Text Only | Print | Product List | Glossary On
Versions: 1 2 3 4 5 6 7 8 9 10 11 12 13 14 15 16 17 18 19 20 21
000
FTUS41 KAKQ 262000 AAB
TAFRIC
TAF AMD
KRIC 262013Z 2620/2718 32012G19KT 4SM -DZ BR OVC015
      TEMPO 2620/2624 2SM BR OVC008
     FM270000 30008KT P6SM OVC015
     FM270300 VRB03KT P6SM OVC020
     FM271200 VRB03KT 4SM -RA BR OVC015=

USA.gov is the U.S. government's official web portal to all federal, state and local government web resources and services.